Time;durP1;ratioP1;P1;durP2;ratioP2;P2;SDS_P1;SDS_P2;PMS_P1;PMS_P2;Temp;Humidity;BMP_temperature;BMP_pressure;BME280_temperature;BME280_humidity;BME280_pressure;Samples;Min_cycle;Max_cycle;Signal;HPM_P1;HPM_P2
2023/03/04 00:01:39;;;;;;;20.83;11.82;;;2.50;99.90;;;;;;5064835;28;20024;-80
2023/03/04 00:04:05;;;;;;;21.67;12.52;;;2.40;99.90;;;;;;5064430;28;20055;-82
2023/03/04 00:06:31;;;;;;;25.85;12.45;;;2.40;99.90;;;;;;5066847;28;20028;-86
2023/03/04 00:08:56;;;;;;;25.10;13.00;;;2.30;99.90;;;;;;5065725;28;20060;-80
2023/03/04 00:11:22;;;;;;;29.10;14.57;;;2.30;99.90;;;;;;5065402;28;20029;-81
2023/03/04 00:13:48;;;;;;;32.38;14.75;;;2.30;99.90;;;;;;5066450;28;20036;-82
2023/03/04 00:16:15;;;;;;;25.98;13.43;;;2.30;99.90;;;;;;5064746;28;20028;-84
2023/03/04 00:18:41;;;;;;;25.73;13.80;;;2.30;99.90;;;;;;5067258;28;20086;-80
2023/03/04 00:21:06;;;;;;;31.42;13.07;;;2.20;99.90;;;;;;5066523;28;20440;-80
2023/03/04 00:23:32;;;;;;;27.67;12.98;;;2.20;99.90;;;;;;5066391;28;20111;-79
2023/03/04 00:25:58;;;;;;;27.70;13.55;;;2.20;99.90;;;;;;5059162;28;20032;-79
2023/03/04 00:28:23;;;;;;;27.52;13.32;;;2.10;99.90;;;;;;5067076;28;20056;-80
2023/03/04 00:30:49;;;;;;;28.45;15.02;;;2.20;99.90;;;;;;5062985;28;20101;-83
2023/03/04 00:33:15;;;;;;;36.10;14.88;;;2.20;99.90;;;;;;5065901;28;20032;-81
2023/03/04 00:35:41;;;;;;;36.22;15.50;;;2.10;99.90;;;;;;5043335;28;20025;-80
2023/03/04 00:38:06;;;;;;;30.25;15.52;;;2.20;99.90;;;;;;5065703;28;20493;-80
2023/03/04 00:40:32;;;;;;;23.90;14.18;;;2.10;99.90;;;;;;5064667;28;20035;-79
2023/03/04 00:42:57;;;;;;;37.55;14.75;;;2.10;99.90;;;;;;5066847;28;20028;-82
2023/03/04 00:45:23;;;;;;;38.50;15.25;;;2.10;99.90;;;;;;5059732;28;20238;-79
2023/03/04 00:47:48;;;;;;;26.15;15.00;;;2.10;99.90;;;;;;5065466;28;20435;-80
2023/03/04 00:50:14;;;;;;;28.63;13.55;;;2.10;99.90;;;;;;5063995;28;20066;-80
2023/03/04 00:52:40;;;;;;;26.42;13.85;;;2.10;99.90;;;;;;5064453;28;20025;-80
2023/03/04 00:55:06;;;;;;;28.75;14.77;;;2.00;99.90;;;;;;5063252;28;20132;-79
2023/03/04 00:57:32;;;;;;;31.95;13.98;;;2.00;99.90;;;;;;5065590;28;20122;-79
2023/03/04 00:59:57;;;;;;;31.33;13.45;;;1.90;99.90;;;;;;5063499;28;20071;-79
2023/03/04 01:02:23;;;;;;;27.13;13.38;;;1.90;99.90;;;;;;5065322;28;20132;-80
2023/03/04 01:04:51;;;;;;;27.42;12.70;;;1.80;99.90;;;;;;5065382;28;20036;-83
2023/03/04 01:07:17;;;;;;;31.60;12.77;;;1.80;99.90;;;;;;5060154;28;20036;-79
2023/03/04 01:09:43;;;;;;;29.77;12.98;;;1.80;99.90;;;;;;5065450;28;20059;-80
2023/03/04 01:12:08;;;;;;;47.55;13.52;;;1.70;99.90;;;;;;5066108;28;20040;-81
2023/03/04 01:14:34;;;;;;;33.80;13.00;;;1.70;99.90;;;;;;5064232;28;20097;-81
2023/03/04 01:17:00;;;;;;;32.00;11.55;;;1.80;99.90;;;;;;5065520;28;20035;-79
2023/03/04 01:19:25;;;;;;;38.10;13.05;;;1.90;99.90;;;;;;5065088;28;20572;-84
2023/03/04 01:21:51;;;;;;;41.08;13.90;;;1.90;99.90;;;;;;5065250;28;20370;-82
2023/03/04 01:24:17;;;;;;;35.83;11.63;;;1.90;99.90;;;;;;5067474;28;20115;-84
2023/03/04 01:26:43;;;;;;;46.35;12.88;;;2.00;99.90;;;;;;5063246;28;20029;-79
2023/03/04 01:29:08;;;;;;;44.30;12.55;;;2.10;99.90;;;;;;5067682;28;20309;-79
2023/03/04 01:31:34;;;;;;;33.58;12.07;;;2.10;99.90;;;;;;5069684;28;20021;-81
2023/03/04 01:34:00;;;;;;;45.00;11.57;;;2.10;99.90;;;;;;5069658;28;20028;-91
2023/03/04 01:36:25;;;;;;;37.75;11.85;;;2.20;99.90;;;;;;5066026;28;20032;-80
2023/03/04 01:38:51;;;;;;;44.90;11.85;;;2.20;99.90;;;;;;5069748;28;20056;-82
2023/03/04 01:41:21;;;;;;;36.05;11.05;;;2.20;99.90;;;;;;5044908;28;20561;-80
2023/03/04 01:43:47;;;;;;;37.55;10.50;;;2.20;99.90;;;;;;5067501;28;20043;-81
2023/03/04 01:46:16;;;;;;;38.08;10.45;;;2.30;99.90;;;;;;5063988;28;20024;-91
2023/03/04 01:48:43;;;;;;;28.02;9.95;;;2.30;99.90;;;;;;5068064;28;20264;-79
2023/03/04 01:51:14;;;;;;;40.15;9.73;;;2.30;99.90;;;;;;5068737;28;20043;-82
2023/03/04 01:53:40;;;;;;;60.90;12.30;;;2.30;99.90;;;;;;5068537;28;20107;-82
2023/03/04 01:56:23;;;;;;;47.28;11.07;;;2.40;99.90;;;;;;5065122;28;20116;-85
2023/03/04 01:59:14;;;;;;;37.88;10.40;;;2.40;99.90;;;;;;5067101;28;20478;-81
2023/03/04 02:01:41;;;;;;;40.38;9.23;;;2.40;99.90;;;;;;5061746;28;20550;-81
2023/03/04 02:04:08;;;;;;;49.83;11.52;;;2.50;99.90;;;;;;5063062;28;20112;-81
2023/03/04 02:06:36;;;;;;;39.85;9.18;;;2.50;99.90;;;;;;5065278;28;20037;-82
2023/03/04 02:09:02;;;;;;;42.63;11.15;;;2.50;99.90;;;;;;5066070;28;20045;-82
2023/03/04 02:11:27;;;;;;;54.38;9.63;;;2.50;99.90;;;;;;5067156;28;20493;-83
2023/03/04 02:13:53;;;;;;;46.53;9.20;;;2.60;99.90;;;;;;5063213;28;20051;-81
2023/03/04 02:16:19;;;;;;;43.50;10.50;;;2.60;99.90;;;;;;5065871;28;20439;-85
2023/03/04 02:18:45;;;;;;;46.95;9.90;;;2.60;99.90;;;;;;5063716;28;20036;-85
2023/03/04 02:21:31;;;;;;;46.67;9.90;;;2.60;99.90;;;;;;5064128;28;20033;-86
2023/03/04 02:23:57;;;;;;;55.15;11.20;;;2.60;99.90;;;;;;5067162;28;20035;-86
2023/03/04 02:26:25;;;;;;;41.15;9.23;;;2.60;99.90;;;;;;5064926;28;20477;-85
2023/03/04 02:28:53;;;;;;;58.42;10.20;;;2.70;99.90;;;;;;5068690;28;20488;-82
2023/03/04 02:31:37;;;;;;;54.88;10.23;;;2.60;99.90;;;;;;5061580;28;20037;-84
2023/03/04 02:34:12;;;;;;;47.53;8.93;;;2.70;99.90;;;;;;5066760;28;20059;-81
2023/03/04 02:36:40;;;;;;;42.50;8.65;;;2.70;99.90;;;;;;5073523;28;20052;-85
2023/03/04 02:39:24;;;;;;;46.65;8.80;;;2.70;99.90;;;;;;5073197;28;20054;-86
2023/03/04 02:41:54;;;;;;;56.50;9.43;;;2.80;99.90;;;;;;5066106;28;20056;-84
2023/03/04 02:44:24;;;;;;;48.72;8.52;;;2.80;99.90;;;;;;5064676;28;20033;-86
2023/03/04 02:46:50;;;;;;;44.30;8.93;;;2.80;99.90;;;;;;5065560;28;20502;-88
2023/03/04 02:49:17;;;;;;;51.33;9.00;;;2.80;99.90;;;;;;5067484;28;20071;-79
2023/03/04 02:51:46;;;;;;;31.48;8.50;;;2.80;99.90;;;;;;5065082;28;20024;-88
2023/03/04 02:54:16;;;;;;;54.72;10.43;;;2.80;99.90;;;;;;5062457;28;20560;-87
2023/03/04 02:56:47;;;;;;;53.92;11.98;;;2.80;99.90;;;;;;5066334;28;20033;-85
2023/03/04 02:59:12;;;;;;;69.10;15.00;;;2.80;99.90;;;;;;5059345;28;20474;-83
2023/03/04 03:01:38;;;;;;;43.08;11.05;;;2.80;99.90;;;;;;5066744;28;20024;-86
2023/03/04 03:04:07;;;;;;;46.75;10.65;;;2.80;99.90;;;;;;5065460;28;20116;-86
2023/03/04 03:06:33;;;;;;;52.95;10.98;;;2.80;99.90;;;;;;5067272;28;20472;-87
2023/03/04 03:08:58;;;;;;;43.17;10.60;;;2.90;99.90;;;;;;5065641;28;20064;-87
2023/03/04 03:11:24;;;;;;;52.97;10.65;;;2.90;99.90;;;;;;5066248;28;20115;-86
2023/03/04 03:13:50;;;;;;;36.42;8.85;;;2.90;99.90;;;;;;5067430;28;20029;-87
2023/03/04 03:16:15;;;;;;;59.55;11.95;;;2.90;99.90;;;;;;5064063;28;20032;-81
2023/03/04 03:18:41;;;;;;;43.78;10.18;;;2.90;99.90;;;;;;5067712;28;20083;-84
2023/03/04 03:21:06;;;;;;;35.08;9.13;;;3.00;99.90;;;;;;5071433;28;20112;-90
2023/03/04 03:23:34;;;;;;;41.72;8.60;;;3.00;99.90;;;;;;5071765;28;20031;-86
2023/03/04 03:26:00;;;;;;;45.13;8.82;;;3.00;99.90;;;;;;5067296;28;20397;-81
2023/03/04 03:28:26;;;;;;;35.75;9.25;;;3.00;99.90;;;;;;5065902;28;20020;-86
2023/03/04 03:30:51;;;;;;;53.10;9.43;;;3.00;99.90;;;;;;5069866;28;20466;-80
2023/03/04 03:33:17;;;;;;;36.58;8.70;;;3.10;99.90;;;;;;5066435;28;20038;-86
2023/03/04 03:35:42;;;;;;;44.17;8.85;;;3.10;99.90;;;;;;5065615;28;20035;-82
2023/03/04 03:38:08;;;;;;;45.05;9.45;;;3.10;99.90;;;;;;5065045;28;20133;-81
2023/03/04 03:40:34;;;;;;;30.17;9.32;;;3.20;99.90;;;;;;5065288;28;20028;-80
2023/03/04 03:42:59;;;;;;;49.33;10.18;;;3.20;99.90;;;;;;5066791;28;20315;-82
2023/03/04 03:45:25;;;;;;;39.00;7.80;;;3.20;99.90;;;;;;5064939;28;20493;-80
2023/03/04 03:47:53;;;;;;;36.78;7.88;;;3.20;99.90;;;;;;5066363;28;20029;-87
2023/03/04 03:50:20;;;;;;;44.58;8.23;;;3.20;99.90;;;;;;5067042;28;20036;-82
2023/03/04 03:52:45;;;;;;;41.53;7.28;;;3.30;99.90;;;;;;5065418;28;20485;-86
2023/03/04 03:55:11;;;;;;;42.55;10.15;;;3.30;99.90;;;;;;5049012;28;20050;-81
2023/03/04 03:57:37;;;;;;;45.28;8.25;;;3.30;99.90;;;;;;5065041;28;20024;-81
2023/03/04 04:00:05;;;;;;;38.15;8.15;;;3.30;99.90;;;;;;5064478;28;20077;-84
2023/03/04 04:02:30;;;;;;;38.95;7.68;;;3.40;99.90;;;;;;5065145;28;20115;-87
2023/03/04 04:04:56;;;;;;;44.20;7.97;;;3.40;99.90;;;;;;5064566;28;20202;-81
2023/03/04 04:07:22;;;;;;;31.33;6.53;;;3.40;99.90;;;;;;5065121;28;20437;-81
2023/03/04 04:09:47;;;;;;;34.60;7.68;;;3.50;99.90;;;;;;5064476;28;20132;-81
2023/03/04 04:12:15;;;;;;;35.83;6.88;;;3.50;99.90;;;;;;5060242;28;20032;-83
2023/03/04 04:14:41;;;;;;;34.33;7.15;;;3.50;99.90;;;;;;5062821;28;20024;-82
2023/03/04 04:17:14;;;;;;;32.80;7.97;;;3.50;99.90;;;;;;5064170;28;20381;-83
2023/03/04 04:19:43;;;;;;;21.60;6.85;;;3.60;99.90;;;;;;5065749;28;20028;-80
2023/03/04 04:22:14;;;;;;;38.95;8.52;;;3.60;99.90;;;;;;5062175;28;20047;-87
2023/03/04 04:24:39;;;;;;;34.25;8.02;;;3.60;99.90;;;;;;5064013;28;20043;-84
2023/03/04 04:27:05;;;;;;;34.47;7.63;;;3.60;99.90;;;;;;5064892;28;20396;-84
2023/03/04 04:29:31;;;;;;;32.58;7.70;;;3.70;99.90;;;;;;5061768;28;20036;-83
2023/03/04 04:31:56;;;;;;;32.95;6.70;;;3.60;99.90;;;;;;5062553;28;20035;-89
2023/03/04 04:34:22;;;;;;;38.78;8.55;;;3.70;99.90;;;;;;5066488;28;20035;-86
2023/03/04 04:36:48;;;;;;;25.60;6.07;;;3.70;99.90;;;;;;5064687;28;20032;-85
2023/03/04 04:39:13;;;;;;;25.80;5.95;;;3.70;99.90;;;;;;5045233;28;20032;-86
2023/03/04 04:41:41;;;;;;;24.40;6.55;;;3.70;99.90;;;;;;5063786;28;20009;-87
2023/03/04 04:44:07;;;;;;;23.65;6.13;;;3.70;99.90;;;;;;5064713;28;20158;-87
2023/03/04 04:46:35;;;;;;;29.13;6.35;;;3.80;99.90;;;;;;5065189;28;20027;-89
2023/03/04 04:49:00;;;;;;;21.98;6.32;;;3.70;99.90;;;;;;5065659;28;20436;-88
2023/03/04 04:51:27;;;;;;;17.00;5.25;;;3.70;99.90;;;;;;5063738;28;20027;-85
2023/03/04 04:53:52;;;;;;;20.00;5.90;;;3.80;99.90;;;;;;5063563;28;20496;-87
2023/03/04 04:56:25;;;;;;;24.13;6.95;;;3.80;99.90;;;;;;5058094;28;20028;-86
2023/03/04 04:58:54;;;;;;;17.45;5.25;;;3.80;99.90;;;;;;5064327;28;20115;-87
2023/03/04 05:01:20;;;;;;;21.60;5.78;;;3.80;99.90;;;;;;5063363;28;20308;-85
2023/03/04 05:03:48;;;;;;;32.67;7.28;;;3.80;99.90;;;;;;5055683;28;20037;-81
2023/03/04 05:06:19;;;;;;;20.77;5.80;;;3.80;99.90;;;;;;5060766;28;20393;-83
2023/03/04 05:08:46;;;;;;;30.95;5.72;;;3.80;99.90;;;;;;5063407;28;20033;-84
2023/03/04 05:11:11;;;;;;;23.40;5.55;;;3.80;99.90;;;;;;5060956;28;20036;-85
2023/03/04 05:13:37;;;;;;;19.20;5.07;;;3.80;99.90;;;;;;5060909;28;20028;-86
2023/03/04 05:16:03;;;;;;;24.65;5.90;;;3.80;99.90;;;;;;5064514;28;20039;-85
2023/03/04 05:18:29;;;;;;;20.20;5.40;;;3.80;99.90;;;;;;5064590;28;20025;-88
2023/03/04 05:20:57;;;;;;;16.95;5.18;;;3.80;99.90;;;;;;5061488;28;20017;-84
2023/03/04 05:23:27;;;;;;;26.45;5.47;;;3.90;99.90;;;;;;5068011;28;20025;-84
2023/03/04 05:25:53;;;;;;;25.10;4.82;;;3.90;99.90;;;;;;5064626;28;20038;-86
2023/03/04 05:28:19;;;;;;;14.32;4.38;;;3.90;99.90;;;;;;5063819;28;20020;-85
2023/03/04 05:30:46;;;;;;;18.63;4.95;;;3.90;99.90;;;;;;5066801;28;20029;-81
2023/03/04 05:33:14;;;;;;;19.50;4.68;;;3.90;99.90;;;;;;5063702;28;20074;-82
2023/03/04 05:35:41;;;;;;;16.50;4.32;;;3.90;99.90;;;;;;5063184;28;20116;-82
2023/03/04 05:38:09;;;;;;;20.50;5.18;;;3.90;99.90;;;;;;5060776;28;20053;-85
2023/03/04 05:40:35;;;;;;;19.52;5.43;;;3.90;99.90;;;;;;5061521;28;20024;-85
2023/03/04 05:43:01;;;;;;;18.05;4.82;;;3.90;99.90;;;;;;5061164;28;20032;-83
2023/03/04 05:45:27;;;;;;;21.98;4.63;;;3.90;99.90;;;;;;5065753;28;20481;-87
2023/03/04 05:47:53;;;;;;;11.43;3.72;;;3.90;99.90;;;;;;5068033;28;20039;-84
2023/03/04 05:50:21;;;;;;;14.85;3.60;;;4.00;99.90;;;;;;5060770;28;20033;-84
2023/03/04 05:52:50;;;;;;;9.57;3.60;;;4.00;99.90;;;;;;5059640;28;20059;-81
2023/03/04 05:55:16;;;;;;;21.67;3.97;;;4.00;99.90;;;;;;5061785;28;20074;-83
2023/03/04 05:57:43;;;;;;;13.32;4.05;;;4.00;99.90;;;;;;5065328;28;20025;-82
2023/03/04 06:00:10;;;;;;;17.02;4.07;;;4.00;99.90;;;;;;5066020;28;20028;-85
2023/03/04 06:02:36;;;;;;;15.38;3.13;;;4.00;99.90;;;;;;5065179;28;20025;-89
2023/03/04 06:05:05;;;;;;;8.25;2.97;;;4.00;99.90;;;;;;5062010;28;20036;-81
2023/03/04 06:07:30;;;;;;;16.50;2.80;;;4.00;99.90;;;;;;5059014;28;20036;-88
2023/03/04 06:09:56;;;;;;;6.00;2.22;;;4.00;99.90;;;;;;5066401;28;20048;-86
2023/03/04 06:12:22;;;;;;;7.45;2.00;;;4.00;99.90;;;;;;5068169;28;20052;-92
2023/03/04 06:14:47;;;;;;;7.53;2.20;;;4.00;99.90;;;;;;5065369;28;20032;-87
2023/03/04 06:17:13;;;;;;;12.00;2.63;;;4.00;99.90;;;;;;5064132;28;20048;-88
2023/03/04 06:19:43;;;;;;;7.93;2.83;;;4.00;99.90;;;;;;5072438;28;20020;-82
2023/03/04 06:22:11;;;;;;;10.50;2.85;;;4.00;99.90;;;;;;5064203;28;20036;-87
2023/03/04 06:24:37;;;;;;;15.25;3.03;;;4.00;99.90;;;;;;5065305;28;20078;-85
2023/03/04 06:27:04;;;;;;;7.25;2.40;;;4.00;99.90;;;;;;5063669;28;20074;-80
2023/03/04 06:29:29;;;;;;;7.90;2.45;;;4.00;99.90;;;;;;5063395;28;20631;-82
2023/03/04 06:31:55;;;;;;;3.85;2.35;;;4.00;99.90;;;;;;5061748;28;20063;-84
2023/03/04 06:34:22;;;;;;;5.97;1.90;;;4.10;99.90;;;;;;5065349;28;20020;-88
2023/03/04 06:36:51;;;;;;;12.25;2.47;;;4.00;99.90;;;;;;5064429;28;20094;-89
2023/03/04 06:39:16;;;;;;;7.75;2.05;;;4.00;99.90;;;;;;5068258;28;20028;-86
2023/03/04 06:41:42;;;;;;;13.32;2.55;;;4.10;99.90;;;;;;5065354;28;20036;-82
2023/03/04 06:44:11;;;;;;;6.65;2.47;;;4.10;99.90;;;;;;5064855;28;20385;-82
2023/03/04 06:46:37;;;;;;;5.50;2.00;;;4.10;99.90;;;;;;5050610;28;20025;-85
2023/03/04 06:49:02;;;;;;;12.18;2.58;;;4.10;99.90;;;;;;5068891;28;20045;-84
2023/03/04 06:51:29;;;;;;;6.35;2.80;;;4.10;99.90;;;;;;5063600;28;20024;-84
2023/03/04 06:53:55;;;;;;;5.93;1.80;;;4.20;99.90;;;;;;5046394;28;20036;-87
2023/03/04 06:56:20;;;;;;;8.52;2.15;;;4.20;99.90;;;;;;5063733;28;21144;-86
2023/03/04 06:58:46;;;;;;;4.88;1.80;;;4.20;99.90;;;;;;5063727;28;20097;-80
2023/03/04 07:01:26;;;;;;;5.88;2.05;;;4.20;99.90;;;;;;5062749;28;20050;-84
2023/03/04 07:03:53;;;;;;;7.45;1.50;;;4.20;99.90;;;;;;5048570;28;20036;-85
2023/03/04 07:06:21;;;;;;;7.40;1.60;;;4.30;99.90;;;;;;5067460;28;20024;-83
2023/03/04 07:08:47;;;;;;;6.32;1.90;;;4.30;99.90;;;;;;5061636;28;20083;-82
2023/03/04 07:11:14;;;;;;;4.90;1.60;;;4.30;99.90;;;;;;5059542;28;20389;-80
2023/03/04 07:13:39;;;;;;;5.18;1.45;;;4.30;99.90;;;;;;5069094;28;20443;-81
2023/03/04 07:16:07;;;;;;;3.42;1.85;;;4.30;99.90;;;;;;5064111;28;20028;-82
2023/03/04 07:18:33;;;;;;;6.47;1.42;;;4.30;99.90;;;;;;5063405;28;20036;-90
2023/03/04 07:20:59;;;;;;;4.03;1.35;;;4.30;99.90;;;;;;5064216;28;20036;-83
2023/03/04 07:23:24;;;;;;;4.53;1.52;;;4.40;99.90;;;;;;5067560;28;20032;-80
2023/03/04 07:25:50;;;;;;;5.55;1.42;;;4.40;99.90;;;;;;5068946;28;20059;-81
2023/03/04 07:28:17;;;;;;;2.28;1.77;;;4.40;99.90;;;;;;5067961;28;20087;-84
2023/03/04 07:30:42;;;;;;;4.22;1.75;;;4.40;99.90;;;;;;5066858;28;20471;-82
2023/03/04 07:33:08;;;;;;;2.25;1.15;;;4.40;99.90;;;;;;5063827;28;20115;-83
2023/03/04 07:35:35;;;;;;;5.85;1.65;;;4.50;99.90;;;;;;5066968;28;20067;-83
2023/03/04 07:38:01;;;;;;;4.40;1.70;;;4.50;99.90;;;;;;5057268;28;20106;-79
2023/03/04 07:40:26;;;;;;;9.40;4.20;;;4.50;99.90;;;;;;5066256;28;20024;-89
2023/03/04 07:42:53;;;;;;;10.80;3.78;;;4.50;99.90;;;;;;5063161;28;20473;-81
2023/03/04 07:45:20;;;;;;;4.22;2.20;;;4.60;99.90;;;;;;5059635;28;20115;-80
2023/03/04 07:47:45;;;;;;;3.63;1.67;;;4.60;99.90;;;;;;5061140;28;20043;-80
2023/03/04 07:50:12;;;;;;;9.63;3.55;;;4.60;99.90;;;;;;5066523;28;20044;-85
2023/03/04 07:52:39;;;;;;;6.45;2.08;;;4.60;99.90;;;;;;5063967;28;21490;-80
2023/03/04 07:55:09;;;;;;;9.32;3.67;;;4.60;99.90;;;;;;5064269;28;20029;-81
2023/03/04 07:57:37;;;;;;;5.45;1.98;;;4.70;99.90;;;;;;5044522;28;20040;-88
2023/03/04 08:00:02;;;;;;;4.15;1.60;;;4.70;99.90;;;;;;5065253;28;20167;-80
2023/03/04 08:02:28;;;;;;;3.70;1.52;;;4.70;99.90;;;;;;5067888;28;20055;-83
2023/03/04 08:04:54;;;;;;;3.88;1.60;;;4.80;99.90;;;;;;5067049;28;20063;-80
2023/03/04 08:07:21;;;;;;;1.50;1.40;;;4.80;99.90;;;;;;5066429;28;20036;-81
2023/03/04 08:09:46;;;;;;;3.78;1.50;;;4.80;99.90;;;;;;5063597;28;20055;-80
2023/03/04 08:12:12;;;;;;;5.70;1.70;;;4.80;99.90;;;;;;5062504;28;20041;-80
2023/03/04 08:14:38;;;;;;;3.88;1.67;;;4.90;99.90;;;;;;5068149;28;20118;-80
2023/03/04 08:17:03;;;;;;;2.60;1.50;;;4.90;99.90;;;;;;5066032;28;20023;-80
2023/03/04 08:19:29;;;;;;;4.22;1.30;;;5.00;99.90;;;;;;5064387;28;20025;-87
2023/03/04 08:21:54;;;;;;;5.18;2.50;;;5.00;99.90;;;;;;5066220;28;20085;-83
2023/03/04 08:24:20;;;;;;;6.93;1.40;;;5.00;99.90;;;;;;5067482;28;20495;-81
2023/03/04 08:26:47;;;;;;;4.47;1.33;;;5.00;99.90;;;;;;5065887;28;20028;-83
2023/03/04 08:29:16;;;;;;;4.38;1.45;;;5.10;99.90;;;;;;5065013;28;20067;-81
2023/03/04 08:31:45;;;;;;;3.53;1.42;;;5.10;99.90;;;;;;5062117;28;20028;-80
2023/03/04 08:34:11;;;;;;;1.38;1.25;;;5.20;99.90;;;;;;5067015;28;20028;-79
2023/03/04 08:36:37;;;;;;;1.95;1.20;;;5.20;99.90;;;;;;5063961;28;20483;-87
2023/03/04 08:39:04;;;;;;;3.67;1.40;;;5.30;99.90;;;;;;5042947;28;20057;-81
2023/03/04 08:41:30;;;;;;;1.27;1.15;;;5.30;99.90;;;;;;5061186;28;20067;-83
2023/03/04 08:43:56;;;;;;;1.73;1.20;;;5.30;99.90;;;;;;5062812;28;20060;-83
2023/03/04 08:46:21;;;;;;;2.65;1.25;;;5.40;99.90;;;;;;5061882;28;20031;-80
2023/03/04 08:48:47;;;;;;;1.95;1.05;;;5.30;99.90;;;;;;5062669;28;20054;-81
2023/03/04 08:51:14;;;;;;;6.40;1.70;;;5.40;99.90;;;;;;5046673;28;20120;-81
2023/03/04 08:53:40;;;;;;;2.33;1.00;;;5.40;99.90;;;;;;5065028;28;20036;-85
2023/03/04 08:56:07;;;;;;;3.00;1.10;;;5.40;99.90;;;;;;5038901;28;20536;-85
2023/03/04 08:58:33;;;;;;;2.50;1.20;;;5.50;99.90;;;;;;5062756;28;20618;-80
2023/03/04 09:01:00;;;;;;;3.92;1.15;;;5.40;99.90;;;;;;5063646;28;20044;-83
2023/03/04 09:03:26;;;;;;;3.75;1.30;;;5.40;99.90;;;;;;5060271;28;20025;-79
2023/03/04 09:05:52;;;;;;;4.85;1.17;;;5.50;99.90;;;;;;5062591;28;20040;-81
2023/03/04 09:08:17;;;;;;;4.35;1.67;;;5.40;99.90;;;;;;5057789;28;20393;-79
2023/03/04 09:10:45;;;;;;;2.78;1.50;;;5.40;99.90;;;;;;5057901;28;20497;-82
2023/03/04 09:13:13;;;;;;;2.85;1.48;;;5.40;99.90;;;;;;5054709;28;20032;-84
2023/03/04 09:15:43;;;;;;;3.53;1.50;;;5.40;99.90;;;;;;5067229;28;20043;-80
2023/03/04 09:18:09;;;;;;;4.82;1.88;;;5.40;99.90;;;;;;5056904;28;20032;-86
2023/03/04 09:20:36;;;;;;;6.40;1.60;;;5.40;99.90;;;;;;5064735;28;20020;-93
2023/03/04 09:23:02;;;;;;;4.43;1.70;;;5.40;99.90;;;;;;5045229;28;20473;-80
2023/03/04 09:25:27;;;;;;;4.75;1.40;;;5.40;99.90;;;;;;5063100;28;20035;-81
2023/03/04 09:27:53;;;;;;;6.55;1.60;;;5.50;99.90;;;;;;5041982;28;20058;-88
2023/03/04 09:30:19;;;;;;;6.07;1.92;;;5.50;99.90;;;;;;5062034;28;20441;-78
2023/03/04 09:32:47;;;;;;;4.18;1.50;;;5.50;99.90;;;;;;5037091;28;20028;-90
2023/03/04 09:35:13;;;;;;;1.65;1.27;;;5.50;99.90;;;;;;5061416;28;20433;-82
2023/03/04 09:37:39;;;;;;;2.92;1.60;;;5.50;99.90;;;;;;5059735;28;20125;-84
2023/03/04 09:40:07;;;;;;;2.08;1.27;;;5.50;99.90;;;;;;5057440;28;20024;-80
2023/03/04 09:42:35;;;;;;;6.50;1.83;;;5.40;99.90;;;;;;5060869;28;20489;-82
2023/03/04 09:45:04;;;;;;;8.60;1.63;;;5.40;99.90;;;;;;5066602;28;20024;-79
2023/03/04 09:47:33;;;;;;;4.30;1.77;;;5.30;99.90;;;;;;5067166;28;20039;-86
2023/03/04 09:50:02;;;;;;;5.97;2.05;;;5.30;99.90;;;;;;5067452;28;20063;-80
2023/03/04 09:52:57;;;;;;;9.25;2.72;;;5.30;99.90;;;;;;5065302;28;20040;-87
2023/03/04 09:55:58;;;;;;;5.47;1.92;;;5.30;99.90;;;;;;5060537;28;20067;-79
2023/03/04 09:58:48;;;;;;;5.00;1.90;;;5.20;99.90;;;;;;5060322;28;20070;-88
2023/03/04 10:01:29;;;;;;;9.25;2.10;;;5.30;99.90;;;;;;5063720;28;20115;-79
2023/03/04 10:04:11;;;;;;;8.40;2.10;;;5.30;99.90;;;;;;5065858;28;20175;-87
2023/03/04 10:06:40;;;;;;;3.05;2.15;;;5.30;99.90;;;;;;5063864;28;20051;-83
2023/03/04 10:09:13;;;;;;;6.65;2.20;;;5.30;99.90;;;;;;5064390;28;20036;-81
2023/03/04 10:11:49;;;;;;;7.50;2.72;;;5.30;99.90;;;;;;5062126;28;20427;-85
2023/03/04 10:14:21;;;;;;;10.70;2.20;;;5.30;99.90;;;;;;5067962;28;20040;-80
2023/03/04 10:17:06;;;;;;;1.98;1.63;;;5.50;99.90;;;;;;5071792;28;20064;-81
2023/03/04 10:19:40;;;;;;;4.10;1.70;;;5.40;99.90;;;;;;5065791;28;20123;-82
2023/03/04 10:22:50;;;;;;;6.15;1.35;;;5.40;99.90;;;;;;5060695;28;20032;-83
2023/03/04 10:25:16;;;;;;;7.65;1.25;;;5.50;99.90;;;;;;4993625;28;20061;-84
2023/03/04 10:27:46;;;;;;;3.33;1.55;;;5.60;99.90;;;;;;5049212;28;20079;-80
2023/03/04 10:30:46;;;;;;;7.20;1.73;;;5.60;99.90;;;;;;5062133;28;20435;-87
2023/03/04 10:33:35;;;;;;;3.70;1.60;;;5.70;99.90;;;;;;5034328;28;20033;-85
2023/03/04 10:36:04;;;;;;;4.70;1.50;;;5.70;99.90;;;;;;5062995;28;20048;-83
2023/03/04 10:38:33;;;;;;;4.97;1.33;;;5.80;99.90;;;;;;5055034;28;20106;-86
2023/03/04 10:41:00;;;;;;;3.58;1.73;;;5.80;99.90;;;;;;5065885;28;20035;-82
2023/03/04 10:43:26;;;;;;;3.33;1.40;;;5.80;99.90;;;;;;5048802;28;20118;-85
2023/03/04 10:46:00;;;;;;;1.20;1.10;;;5.80;99.90;;;;;;5068905;28;20036;-84
2023/03/04 10:48:28;;;;;;;5.07;1.50;;;5.80;99.90;;;;;;5065733;28;20020;-84
2023/03/04 10:51:09;;;;;;;6.03;1.95;;;5.70;99.90;;;;;;5061686;28;20488;-87
2023/03/04 10:53:40;;;;;;;1.95;1.38;;;5.80;99.90;;;;;;5064524;28;20032;-83
2023/03/04 10:56:38;;;;;;;1.40;1.30;;;5.70;99.90;;;;;;5058876;28;20371;-88
2023/03/04 10:59:32;;;;;;;5.63;1.40;;;5.80;99.90;;;;;;5060739;28;20428;-85
2023/03/04 11:02:26;;;;;;;2.78;1.40;;;5.80;99.90;;;;;;5063811;28;20048;-89
2023/03/04 11:05:10;;;;;;;2.67;1.88;;;5.80;99.90;;;;;;5062812;28;20042;-83
2023/03/04 11:07:40;;;;;;;3.38;1.60;;;5.80;99.90;;;;;;5060822;28;20024;-81
2023/03/04 11:10:13;;;;;;;3.58;2.13;;;5.80;99.90;;;;;;5066053;28;20063;-85
2023/03/04 11:12:38;;;;;;;3.80;1.85;;;5.80;99.90;;;;;;5062532;28;20025;-82
2023/03/04 11:15:18;;;;;;;7.07;1.75;;;5.80;99.90;;;;;;5044011;28;20431;-89
2023/03/04 11:17:50;;;;;;;5.47;1.88;;;5.80;99.90;;;;;;5064667;28;20404;-80
2023/03/04 11:20:33;;;;;;;1.77;1.63;;;5.90;99.90;;;;;;5062947;28;20036;-80
2023/03/04 11:23:14;;;;;;;1.30;1.30;;;5.80;99.90;;;;;;5064903;28;20028;-78
2023/03/04 11:26:00;;;;;;;3.95;1.67;;;5.90;99.90;;;;;;5076413;28;20470;-90
2023/03/04 11:28:35;;;;;;;6.80;1.85;;;5.90;99.90;;;;;;5067541;28;20024;-87
2023/03/04 11:31:07;;;;;;;6.35;2.63;;;5.80;99.90;;;;;;5067920;28;20048;-82
2023/03/04 11:33:57;;;;;;;5.55;2.90;;;5.90;99.90;;;;;;5067048;28;20513;-80
2023/03/04 11:36:56;;;;;;;14.73;5.03;;;5.90;99.90;;;;;;5061940;28;20032;-87
2023/03/04 11:39:51;;;;;;;16.83;4.07;;;5.80;99.90;;;;;;5057550;28;20111;-83
2023/03/04 11:42:31;;;;;;;18.40;5.15;;;5.70;99.90;;;;;;5062070;28;20389;-84
2023/03/04 11:44:56;;;;;;;6.38;3.58;;;5.70;99.90;;;;;;5061169;28;20494;-81
2023/03/04 11:47:40;;;;;;;8.52;4.05;;;5.70;99.90;;;;;;5062803;28;20070;-82
2023/03/04 11:50:27;;;;;;;9.63;3.67;;;5.60;99.90;;;;;;5064126;28;20562;-81
2023/03/04 11:52:52;;;;;;;12.10;3.85;;;5.60;99.90;;;;;;5063510;28;20038;-82
2023/03/04 11:55:38;;;;;;;6.03;3.30;;;5.60;99.90;;;;;;5065551;28;20115;-84
2023/03/04 11:58:31;;;;;;;6.70;3.10;;;5.50;99.90;;;;;;5065808;28;20024;-86
2023/03/04 12:01:09;;;;;;;13.82;2.80;;;5.50;99.90;;;;;;5063103;28;20388;-82
2023/03/04 12:03:53;;;;;;;11.35;2.40;;;5.40;99.90;;;;;;5067441;28;20488;-87
2023/03/04 12:07:09;;;;;;;3.75;2.05;;;5.50;99.90;;;;;;5060549;28;20032;-83
2023/03/04 12:10:07;;;;;;;5.38;2.50;;;5.50;99.90;;;;;;5012835;28;20131;-84
2023/03/04 12:12:41;;;;;;;5.22;2.53;;;5.60;99.90;;;;;;5047921;28;20043;-82
2023/03/04 12:15:28;;;;;;;6.63;2.50;;;5.60;99.90;;;;;;5063348;28;20034;-80
2023/03/04 12:18:05;;;;;;;8.40;2.90;;;5.60;99.90;;;;;;5059464;28;20032;-84
2023/03/04 12:20:55;;;;;;;8.93;3.05;;;5.60;99.90;;;;;;5065701;28;20044;-80
2023/03/04 12:23:26;;;;;;;11.77;3.22;;;5.60;99.90;;;;;;5064419;28;20028;-87
2023/03/04 12:25:55;;;;;;;13.48;3.50;;;5.70;99.90;;;;;;5065507;28;20024;-88
2023/03/04 12:28:51;;;;;;;12.57;3.50;;;5.70;99.90;;;;;;5066006;28;20036;-86
2023/03/04 12:31:28;;;;;;;13.18;3.88;;;5.70;99.90;;;;;;5065067;28;20082;-81
2023/03/04 12:34:29;;;;;;;17.65;3.38;;;5.80;99.90;;;;;;5067690;28;20056;-81
2023/03/04 12:36:57;;;;;;;23.17;5.53;;;5.80;99.90;;;;;;5064239;28;20028;-82
2023/03/04 12:39:38;;;;;;;13.80;3.45;;;5.80;99.90;;;;;;5074428;28;20028;-83
2023/03/04 12:42:19;;;;;;;12.20;3.42;;;5.90;99.90;;;;;;5062342;28;20025;-79
2023/03/04 12:45:06;;;;;;;10.63;3.03;;;6.00;99.90;;;;;;5065346;28;20099;-81
2023/03/04 12:47:57;;;;;;;13.73;3.15;;;6.10;99.90;;;;;;5065614;28;20035;-84
2023/03/04 12:50:47;;;;;;;12.95;3.58;;;6.00;99.90;;;;;;5029374;28;20048;-81
2023/03/04 12:53:24;;;;;;;13.93;3.47;;;5.90;99.90;;;;;;5063082;28;20136;-87
2023/03/04 12:55:51;;;;;;;16.20;4.75;;;5.80;99.90;;;;;;5062878;28;20056;-80
2023/03/04 12:58:25;;;;;;;15.55;3.67;;;5.80;99.90;;;;;;5058416;28;20093;-80
2023/03/04 13:01:37;;;;;;;19.73;4.65;;;5.90;99.90;;;;;;5066685;28;20040;-82
2023/03/04 13:04:14;;;;;;;19.95;3.95;;;6.00;99.90;;;;;;5039316;28;20561;-81